Huaquan222 — BSOX — position and weather

sailwx.info

Track history (hours):
 
Tides and Currents Weather Stations Pressure Air Temp Water Temp Dewpoint Dewpoint Depression Visibility Wind Speed Wind Dir Waves Ship Positions

Huaquan222

Last reported at 2014-Nov-23 13:29 UTC. Time now 2014-Nov-24 00:13 UTC.
Position N 22°16' E 113°49'.

Length 67 m; draft 2.1 m.

Type: Dredging. MMSI: 413467440.

Date/timePositionNaut miles runAvg speedWind from/ knotsBaromVisibWave heightAir tempDewpointWater temp
2014-Nov-23 13:29N 22°16' E 113°49'0 0.0
2014-Nov-23 12:33N 22°16' E 113°49'0 0.0
2014-Nov-23 11:32N 22°16' E 113°49'0 0.3
2014-Nov-23 10:27N 22°16' E 113°49'1 1.3
2014-Nov-23 09:29N 22°16' E 113°48'2 1.7
2014-Nov-23 08:33N 22°16' E 113°49'0 0.0
2014-Nov-23 06:33N 22°16' E 113°49'0 0.0
2014-Nov-23 05:33N 22°16' E 113°49'0 0.0
2014-Nov-23 04:33N 22°16' E 113°49'1 0.7
2014-Nov-23 03:33N 22°17' E 113°50'0 0.0
2014-Nov-23 02:33N 22°17' E 113°50'0 0.0
2014-Nov-23 01:33N 22°17' E 113°50'0 0.0
2014-Nov-23 00:32N 22°17' E 113°50'0 0.0
2014-Nov-22 23:32N 22°17' E 113°50'1 0.0
2014-Nov-22 09:33N 22°16' E 113°49'0 0.0
2014-Nov-22 08:33N 22°17' E 113°49'0 0.4
2014-Nov-22 07:33N 22°16' E 113°49'2 1.2
2014-Nov-22 06:20N 22°15' E 113°48'2 2.4
2014-Nov-22 05:33N 22°16' E 113°49'0 0.0
2014-Nov-22 04:32N 22°16' E 113°49'0 0.3
2014-Nov-22 03:33N 22°16' E 113°49'0 0.1
2014-Nov-22 02:33N 22°16' E 113°49'0 0.4
2014-Nov-22 01:33N 22°16' E 113°49'0 0.0
2014-Nov-22 00:33N 22°16' E 113°49'0 0.0
2014-Nov-21 14:33N 22°16' E 113°49'0 0.0
2014-Nov-21 13:33N 22°17' E 113°49'0 0.3
2014-Nov-21 12:33N 22°16' E 113°49'0 0.1
2014-Nov-21 11:33N 22°16' E 113°49'0 0.1
2014-Nov-21 10:33N 22°16' E 113°49'0 0.0
2014-Nov-21 09:33N 22°16' E 113°49'0 0.0
2014-Nov-21 08:33N 22°16' E 113°49'0 0.0
2014-Nov-21 07:33N 22°16' E 113°49'1 1.0
2014-Nov-21 06:24N 22°16' E 113°48'1 1.8
2014-Nov-21 05:33N 22°17' E 113°49'0 0.0
2014-Nov-21 04:34N 22°17' E 113°49'0 0.0
2014-Nov-21 03:31N 22°17' E 113°49'0 0.0
2014-Nov-21 02:33N 22°17' E 113°49'1 0.6
2014-Nov-21 01:26N 22°17' E 113°50'0 0.0
2014-Nov-21 00:28N 22°17' E 113°50'1 0.0
2014-Nov-20 09:33N 22°17' E 113°49'0 0.4
2014-Nov-20 08:33N 22°17' E 113°49'0 0.1
2014-Nov-20 07:33N 22°17' E 113°50'2 1.3
2014-Nov-20 06:11N 22°16' E 113°48'1 2.2
2014-Nov-20 05:33N 22°17' E 113°49'0 0.5
2014-Nov-20 04:33N 22°17' E 113°49'0 0.0
2014-Nov-20 03:33N 22°17' E 113°49'0 0.1
2014-Nov-20 02:33N 22°17' E 113°49'2 1.4
2014-Nov-20 01:16N 22°16' E 113°48'2 2.3
2014-Nov-20 00:34N 22°17' E 113°49'0 0.0
2014-Nov-19 23:33N 22°17' E 113°49'0 0.0
2014-Nov-19 22:33N 22°17' E 113°49'0 0.0
2014-Nov-19 14:33N 22°17' E 113°49'0 0.2
2014-Nov-19 13:34N 22°17' E 113°49'0 0.0
2014-Nov-19 12:33N 22°17' E 113°49'0 0.0
2014-Nov-19 11:34N 22°17' E 113°49'0 0.3
2014-Nov-19 10:34N 22°17' E 113°49'0 0.0
2014-Nov-19 09:33N 22°17' E 113°49'5 5.2
2014-Nov-19 08:33N 22°14' E 113°45'5 5.1
2014-Nov-19 07:32N 22°09' E 113°42'4 4.1
2014-Nov-19 06:33N 22°06' E 113°40'3 3.4
2014-Nov-19 05:33N 22°03' E 113°39'5 4.6
2014-Nov-19 04:27N 21°58' E 113°38'3 0.9
2014-Nov-19 01:33N 21°55' E 113°37'5 5.3
2014-Nov-19 00:33N 22°00' E 113°38'6 5.6
2014-Nov-18 23:33N 22°06' E 113°40'5 5.2
2014-Nov-18 22:34N 22°10' E 113°42'5 5.0
2014-Nov-18 21:34N 22°14' E 113°46'5 4.6
2014-Nov-18 20:34N 22°17' E 113°50'0 0.0
2014-Nov-18 19:34N 22°17' E 113°50'0 0.0
2014-Nov-18 18:34N 22°17' E 113°50'0 0.0
2014-Nov-18 17:34N 22°17' E 113°50'0 0.0
2014-Nov-18 16:34N 22°17' E 113°50'0 0.0
2014-Nov-18 15:33N 22°17' E 113°50'0 0.0
2014-Nov-18 14:34N 22°17' E 113°50'0 0.0
2014-Nov-18 13:33N 22°17' E 113°50'0 0.0
2014-Nov-18 12:33N 22°17' E 113°50'0 0.0
2014-Nov-18 11:34N 22°17' E 113°50'0 0.1
2014-Nov-18 10:34N 22°17' E 113°50'0 0.0
2014-Nov-18 09:33N 22°17' E 113°50'0 0.0
2014-Nov-18 08:32N 22°17' E 113°50'0 0.0
2014-Nov-18 07:33N 22°17' E 113°50'0 0.0
2014-Nov-18 06:33N 22°17' E 113°50'0 0.0
2014-Nov-18 05:34N 22°17' E 113°50'0 0.1
2014-Nov-18 04:33N 22°17' E 113°50'0 0.0
2014-Nov-18 03:34N 22°17' E 113°50'0 0.0
2014-Nov-18 02:33N 22°17' E 113°50'0 0.0
2014-Nov-18 01:34N 22°17' E 113°50'0 0.3
2014-Nov-18 00:34N 22°17' E 113°50'0 0.4
2014-Nov-17 23:34N 22°17' E 113°50'0 0.0
2014-Nov-17 22:33N 22°17' E 113°50'0 0.0
2014-Nov-17 21:33N 22°17' E 113°50'0 0.0
2014-Nov-17 20:34N 22°17' E 113°50'0 0.0
2014-Nov-17 19:34N 22°17' E 113°50'0 0.0
2014-Nov-17 18:33N 22°17' E 113°50'0 0.1
2014-Nov-17 17:34N 22°17' E 113°50'0 0.0
2014-Nov-17 16:34N 22°17' E 113°50'0 0.1
2014-Nov-17 15:34N 22°17' E 113°50'0 0.0
2014-Nov-17 14:34N 22°17' E 113°50'0 0.1
2014-Nov-17 13:33N 22°17' E 113°50'0 0.0
2014-Nov-17 12:34N 22°17' E 113°50'1 0.7
2014-Nov-17 11:34N 22°17' E 113°49'0 0.0
2014-Nov-17 10:33N 22°17' E 113°49'0 0.0
2014-Nov-17 09:33N 22°17' E 113°49'0 0.0
2014-Nov-17 08:33N 22°17' E 113°49'0 0.0
2014-Nov-17 07:33N 22°17' E 113°49'0 0.0
2014-Nov-17 06:29N 22°17' E 113°49'1 1.0
2014-Nov-17 05:32N 22°18' E 113°50'0 0.0
2014-Nov-17 04:33N 22°18' E 113°50'0 0.0
2014-Nov-17 03:33N 22°18' E 113°50'0 0.0
2014-Nov-17 02:33N 22°18' E 113°50'0 0.0
2014-Nov-17 01:33N 22°18' E 113°50'0 0.2
2014-Nov-17 00:19N 22°17' E 113°50'0 0.0
2014-Nov-16 12:32N 22°17' E 113°50'0 0.1
2014-Nov-16 11:33N 22°17' E 113°50'0 0.0
2014-Nov-16 10:33N 22°17' E 113°50'1 0.7
2014-Nov-16 09:32N 22°17' E 113°49'1 0.8
2014-Nov-16 08:33N 22°16' E 113°49'1 0.8
2014-Nov-16 07:33N 22°17' E 113°49'0 0.2
2014-Nov-16 06:33N 22°17' E 113°49'2 1.2
2014-Nov-16 05:11N 22°16' E 113°48'1 2.3
2014-Nov-16 04:33N 22°17' E 113°49'0 0.0
2014-Nov-16 03:33N 22°17' E 113°49'1 0.5
2014-Nov-16 02:33N 22°17' E 113°50'2 1.4
2014-Nov-16 01:21N 22°16' E 113°48'1 1.6
2014-Nov-16 00:32N 22°17' E 113°49'0 0.0
2014-Nov-15 23:33N 22°17' E 113°49'0 0.2
2014-Nov-15 22:33N 22°17' E 113°49'0 0.3
2014-Nov-15 21:33N 22°17' E 113°50'0 0.0
2014-Nov-15 20:33N 22°17' E 113°50'0 0.0
2014-Nov-15 19:33N 22°17' E 113°50'1 1.3
2014-Nov-15 18:33N 22°16' E 113°49'1 0.1
2014-Nov-15 09:17N 22°17' E 113°49'1 0.8
2014-Nov-15 08:30N 22°17' E 113°49'2 1.5
2014-Nov-15 07:22N 22°16' E 113°48'1 1.8
2014-Nov-15 06:33N 22°17' E 113°49'0 0.1
2014-Nov-15 05:33N 22°17' E 113°49'0 0.0
2014-Nov-15 04:33N 22°17' E 113°49'2 1.3
2014-Nov-15 03:21N 22°16' E 113°48'2 1.9
2014-Nov-15 02:33N 22°17' E 113°49'0 0.0
2014-Nov-15 01:33N 22°17' E 113°49'0 0.0
2014-Nov-15 00:33N 22°17' E 113°49'0 0.0
2014-Nov-14 23:33N 22°17' E 113°49'0 0.0
2014-Nov-14 09:26N 22°17' E 113°49'0 0.0
2014-Nov-14 08:33N 22°17' E 113°49'1 0.7
2014-Nov-14 07:32N 22°17' E 113°49'0 0.0
2014-Nov-14 06:33N 22°17' E 113°49'0 0.1
2014-Nov-14 05:32N 22°17' E 113°49'0 0.0
2014-Nov-14 04:33N 22°17' E 113°49'0 0.1
2014-Nov-14 03:33N 22°17' E 113°49'0 0.0
2014-Nov-14 02:33N 22°17' E 113°49'0 0.1
2014-Nov-14 01:33N 22°17' E 113°49'0 0.0
2014-Nov-14 00:30N 22°17' E 113°49'0 0.0
2014-Nov-13 23:33N 22°17' E 113°49'0 0.0
2014-Nov-13 22:32N 22°17' E 113°49'  
Track history (hours):
 
Tides and Currents Weather Stations Pressure Air Temp Water Temp Dewpoint Dewpoint Depression Visibility Wind Speed Wind Dir Waves Ship Positions

Huaquan222

Last reported at 2014-Nov-23 13:29 UTC. Time now 2014-Nov-24 00:13 UTC.
Position N 22°16' E 113°49'.

Length 67 m; draft 2.1 m.

Type: Dredging. MMSI: 413467440.

Date/timePositionNaut miles runAvg speedWind from/ knotsBaromVisibWave heightAir tempDewpointWater temp
2014-Nov-23 13:29N 22°16' E 113°49'0 0.0
2014-Nov-23 12:33N 22°16' E 113°49'0 0.0
2014-Nov-23 11:32N 22°16' E 113°49'0 0.3
2014-Nov-23 10:27N 22°16' E 113°49'1 1.3
2014-Nov-23 09:29N 22°16' E 113°48'2 1.7
2014-Nov-23 08:33N 22°16' E 113°49'0 0.0
2014-Nov-23 06:33N 22°16' E 113°49'0 0.0
2014-Nov-23 05:33N 22°16' E 113°49'0 0.0
2014-Nov-23 04:33N 22°16' E 113°49'1 0.7
2014-Nov-23 03:33N 22°17' E 113°50'0 0.0
2014-Nov-23 02:33N 22°17' E 113°50'0 0.0
2014-Nov-23 01:33N 22°17' E 113°50'0 0.0
2014-Nov-23 00:32N 22°17' E 113°50'0 0.0
2014-Nov-22 23:32N 22°17' E 113°50'1 0.0
2014-Nov-22 09:33N 22°16' E 113°49'0 0.0
2014-Nov-22 08:33N 22°17' E 113°49'0 0.4
2014-Nov-22 07:33N 22°16' E 113°49'2 1.2
2014-Nov-22 06:20N 22°15' E 113°48'2 2.4
2014-Nov-22 05:33N 22°16' E 113°49'0 0.0
2014-Nov-22 04:32N 22°16' E 113°49'0 0.3
2014-Nov-22 03:33N 22°16' E 113°49'0 0.1
2014-Nov-22 02:33N 22°16' E 113°49'0 0.4
2014-Nov-22 01:33N 22°16' E 113°49'0 0.0
2014-Nov-22 00:33N 22°16' E 113°49'0 0.0
2014-Nov-21 14:33N 22°16' E 113°49'0 0.0
2014-Nov-21 13:33N 22°17' E 113°49'0 0.3
2014-Nov-21 12:33N 22°16' E 113°49'0 0.1
2014-Nov-21 11:33N 22°16' E 113°49'0 0.1
2014-Nov-21 10:33N 22°16' E 113°49'0 0.0
2014-Nov-21 09:33N 22°16' E 113°49'0 0.0
2014-Nov-21 08:33N 22°16' E 113°49'0 0.0
2014-Nov-21 07:33N 22°16' E 113°49'1 1.0
2014-Nov-21 06:24N 22°16' E 113°48'1 1.8
2014-Nov-21 05:33N 22°17' E 113°49'0 0.0
2014-Nov-21 04:34N 22°17' E 113°49'0 0.0
2014-Nov-21 03:31N 22°17' E 113°49'0 0.0
2014-Nov-21 02:33N 22°17' E 113°49'1 0.6
2014-Nov-21 01:26N 22°17' E 113°50'0 0.0
2014-Nov-21 00:28N 22°17' E 113°50'1 0.0
2014-Nov-20 09:33N 22°17' E 113°49'0 0.4
2014-Nov-20 08:33N 22°17' E 113°49'0 0.1
2014-Nov-20 07:33N 22°17' E 113°50'2 1.3
2014-Nov-20 06:11N 22°16' E 113°48'1 2.2
2014-Nov-20 05:33N 22°17' E 113°49'0 0.5
2014-Nov-20 04:33N 22°17' E 113°49'0 0.0
2014-Nov-20 03:33N 22°17' E 113°49'0 0.1
2014-Nov-20 02:33N 22°17' E 113°49'2 1.4
2014-Nov-20 01:16N 22°16' E 113°48'2 2.3
2014-Nov-20 00:34N 22°17' E 113°49'0 0.0
2014-Nov-19 23:33N 22°17' E 113°49'0 0.0
2014-Nov-19 22:33N 22°17' E 113°49'0 0.0
2014-Nov-19 14:33N 22°17' E 113°49'0 0.2
2014-Nov-19 13:34N 22°17' E 113°49'0 0.0
2014-Nov-19 12:33N 22°17' E 113°49'0 0.0
2014-Nov-19 11:34N 22°17' E 113°49'0 0.3
2014-Nov-19 10:34N 22°17' E 113°49'0 0.0
2014-Nov-19 09:33N 22°17' E 113°49'5 5.2
2014-Nov-19 08:33N 22°14' E 113°45'5 5.1
2014-Nov-19 07:32N 22°09' E 113°42'4 4.1
2014-Nov-19 06:33N 22°06' E 113°40'3 3.4
2014-Nov-19 05:33N 22°03' E 113°39'5 4.6
2014-Nov-19 04:27N 21°58' E 113°38'3 0.9
2014-Nov-19 01:33N 21°55' E 113°37'5 5.3
2014-Nov-19 00:33N 22°00' E 113°38'6 5.6
2014-Nov-18 23:33N 22°06' E 113°40'5 5.2
2014-Nov-18 22:34N 22°10' E 113°42'5 5.0
2014-Nov-18 21:34N 22°14' E 113°46'5 4.6
2014-Nov-18 20:34N 22°17' E 113°50'0 0.0
2014-Nov-18 19:34N 22°17' E 113°50'0 0.0
2014-Nov-18 18:34N 22°17' E 113°50'0 0.0
2014-Nov-18 17:34N 22°17' E 113°50'0 0.0
2014-Nov-18 16:34N 22°17' E 113°50'0 0.0
2014-Nov-18 15:33N 22°17' E 113°50'0 0.0
2014-Nov-18 14:34N 22°17' E 113°50'0 0.0
2014-Nov-18 13:33N 22°17' E 113°50'0 0.0
2014-Nov-18 12:33N 22°17' E 113°50'0 0.0
2014-Nov-18 11:34N 22°17' E 113°50'0 0.1
2014-Nov-18 10:34N 22°17' E 113°50'0 0.0
2014-Nov-18 09:33N 22°17' E 113°50'0 0.0
2014-Nov-18 08:32N 22°17' E 113°50'0 0.0
2014-Nov-18 07:33N 22°17' E 113°50'0 0.0
2014-Nov-18 06:33N 22°17' E 113°50'0 0.0
2014-Nov-18 05:34N 22°17' E 113°50'0 0.1
2014-Nov-18 04:33N 22°17' E 113°50'0 0.0
2014-Nov-18 03:34N 22°17' E 113°50'0 0.0
2014-Nov-18 02:33N 22°17' E 113°50'0 0.0
2014-Nov-18 01:34N 22°17' E 113°50'0 0.3
2014-Nov-18 00:34N 22°17' E 113°50'0 0.4
2014-Nov-17 23:34N 22°17' E 113°50'0 0.0
2014-Nov-17 22:33N 22°17' E 113°50'0 0.0
2014-Nov-17 21:33N 22°17' E 113°50'0 0.0
2014-Nov-17 20:34N 22°17' E 113°50'0 0.0
2014-Nov-17 19:34N 22°17' E 113°50'0 0.0
2014-Nov-17 18:33N 22°17' E 113°50'0 0.1
2014-Nov-17 17:34N 22°17' E 113°50'0 0.0
2014-Nov-17 16:34N 22°17' E 113°50'0 0.1
2014-Nov-17 15:34N 22°17' E 113°50'0 0.0
2014-Nov-17 14:34N 22°17' E 113°50'0 0.1
2014-Nov-17 13:33N 22°17' E 113°50'0 0.0
2014-Nov-17 12:34N 22°17' E 113°50'1 0.7
2014-Nov-17 11:34N 22°17' E 113°49'0 0.0
2014-Nov-17 10:33N 22°17' E 113°49'0 0.0
2014-Nov-17 09:33N 22°17' E 113°49'0 0.0
2014-Nov-17 08:33N 22°17' E 113°49'0 0.0
2014-Nov-17 07:33N 22°17' E 113°49'0 0.0
2014-Nov-17 06:29N 22°17' E 113°49'1 1.0
2014-Nov-17 05:32N 22°18' E 113°50'0 0.0
2014-Nov-17 04:33N 22°18' E 113°50'0 0.0
2014-Nov-17 03:33N 22°18' E 113°50'0 0.0
2014-Nov-17 02:33N 22°18' E 113°50'0 0.0
2014-Nov-17 01:33N 22°18' E 113°50'0 0.2
2014-Nov-17 00:19N 22°17' E 113°50'0 0.0
2014-Nov-16 12:32N 22°17' E 113°50'0 0.1
2014-Nov-16 11:33N 22°17' E 113°50'0 0.0
2014-Nov-16 10:33N 22°17' E 113°50'1 0.7
2014-Nov-16 09:32N 22°17' E 113°49'1 0.8
2014-Nov-16 08:33N 22°16' E 113°49'1 0.8
2014-Nov-16 07:33N 22°17' E 113°49'0 0.2
2014-Nov-16 06:33N 22°17' E 113°49'2 1.2
2014-Nov-16 05:11N 22°16' E 113°48'1 2.3
2014-Nov-16 04:33N 22°17' E 113°49'0 0.0
2014-Nov-16 03:33N 22°17' E 113°49'1 0.5
2014-Nov-16 02:33N 22°17' E 113°50'2 1.4
2014-Nov-16 01:21N 22°16' E 113°48'1 1.6
2014-Nov-16 00:32N 22°17' E 113°49'0 0.0
2014-Nov-15 23:33N 22°17' E 113°49'0 0.2
2014-Nov-15 22:33N 22°17' E 113°49'0 0.3
2014-Nov-15 21:33N 22°17' E 113°50'0 0.0
2014-Nov-15 20:33N 22°17' E 113°50'0 0.0
2014-Nov-15 19:33N 22°17' E 113°50'1 1.3
2014-Nov-15 18:33N 22°16' E 113°49'1 0.1
2014-Nov-15 09:17N 22°17' E 113°49'1 0.8
2014-Nov-15 08:30N 22°17' E 113°49'2 1.5
2014-Nov-15 07:22N 22°16' E 113°48'1 1.8
2014-Nov-15 06:33N 22°17' E 113°49'0 0.1
2014-Nov-15 05:33N 22°17' E 113°49'0 0.0
2014-Nov-15 04:33N 22°17' E 113°49'2 1.3
2014-Nov-15 03:21N 22°16' E 113°48'2 1.9
2014-Nov-15 02:33N 22°17' E 113°49'0 0.0
2014-Nov-15 01:33N 22°17' E 113°49'0 0.0
2014-Nov-15 00:33N 22°17' E 113°49'0 0.0
2014-Nov-14 23:33N 22°17' E 113°49'0 0.0
2014-Nov-14 09:26N 22°17' E 113°49'0 0.0
2014-Nov-14 08:33N 22°17' E 113°49'1 0.7
2014-Nov-14 07:32N 22°17' E 113°49'0 0.0
2014-Nov-14 06:33N 22°17' E 113°49'0 0.1
2014-Nov-14 05:32N 22°17' E 113°49'0 0.0
2014-Nov-14 04:33N 22°17' E 113°49'0 0.1
2014-Nov-14 03:33N 22°17' E 113°49'0 0.0
2014-Nov-14 02:33N 22°17' E 113°49'0 0.1
2014-Nov-14 01:33N 22°17' E 113°49'0 0.0
2014-Nov-14 00:30N 22°17' E 113°49'0 0.0
2014-Nov-13 23:33N 22°17' E 113°49'0 0.0
2014-Nov-13 22:32N 22°17' E 113°49'  

Dump ship's entire track history